createdAt,value
2022-08-30T00:03:17.256Z,17.16
2022-08-30T00:08:39.173Z,17.09
2022-08-30T00:14:00.375Z,17.01
2022-08-30T00:19:20.943Z,17.02
2022-08-30T00:24:41.812Z,16.98
2022-08-30T00:30:03.016Z,16.83
2022-08-30T00:35:24.255Z,16.69
2022-08-30T00:40:46.211Z,16.74
2022-08-30T00:46:08.612Z,16.71
2022-08-30T00:51:32.022Z,16.78
2022-08-30T00:56:53.287Z,16.93
2022-08-30T01:02:14.571Z,16.91
2022-08-30T01:07:35.303Z,16.89
2022-08-30T01:12:56.197Z,16.80
2022-08-30T01:18:18.893Z,16.82
2022-08-30T01:23:46.278Z,16.86
2022-08-30T01:29:11.933Z,16.74
2022-08-30T01:34:32.718Z,16.63
2022-08-30T01:39:53.890Z,16.71
2022-08-30T01:45:14.528Z,16.63
2022-08-30T01:50:35.233Z,16.44
2022-08-30T01:55:59.208Z,16.41
2022-08-30T02:01:23.777Z,16.35
2022-08-30T02:06:44.828Z,16.50
2022-08-30T02:12:08.084Z,16.58
2022-08-30T02:17:29.047Z,16.56
2022-08-30T02:22:50.307Z,16.56
2022-08-30T02:28:11.792Z,16.62
2022-08-30T02:33:38.024Z,16.55
2022-08-30T02:39:01.227Z,16.54
2022-08-30T02:44:21.954Z,16.66
2022-08-30T02:49:42.842Z,16.71
2022-08-30T02:55:05.413Z,16.56
2022-08-30T03:00:26.068Z,16.63
2022-08-30T03:05:46.819Z,16.59
2022-08-30T03:11:07.825Z,16.52
2022-08-30T03:16:28.553Z,16.61
2022-08-30T03:21:50.437Z,16.58
2022-08-30T03:27:12.665Z,16.53
2022-08-30T03:32:34.111Z,16.35
2022-08-30T03:37:56.269Z,16.34
2022-08-30T03:43:17.526Z,16.39
2022-08-30T03:48:38.522Z,16.48
2022-08-30T03:53:59.927Z,16.40
2022-08-30T03:59:21.016Z,16.29
2022-08-30T04:04:42.078Z,16.28
2022-08-30T04:10:05.356Z,16.46
2022-08-30T04:15:25.960Z,16.41
2022-08-30T04:20:47.489Z,16.28
2022-08-30T04:26:08.828Z,16.26
2022-08-30T04:31:31.724Z,16.34
2022-08-30T04:36:52.824Z,16.25
2022-08-30T04:42:13.929Z,16.33
2022-08-30T04:47:35.179Z,16.25
2022-08-30T04:52:55.656Z,16.40
2022-08-30T04:58:16.727Z,16.40
2022-08-30T05:03:37.851Z,16.40
2022-08-30T05:09:00.921Z,16.68
2022-08-30T05:14:21.513Z,16.90
2022-08-30T05:19:42.427Z,16.94
2022-08-30T05:25:05.157Z,16.93
2022-08-30T05:30:27.919Z,16.81
2022-08-30T05:35:48.899Z,16.85
2022-08-30T05:41:10.786Z,16.96
2022-08-30T05:51:55.506Z,16.95
2022-08-30T05:57:17.530Z,17.01
2022-08-30T06:02:38.373Z,17.10
2022-08-30T06:07:59.120Z,17.16
2022-08-30T06:13:19.765Z,17.27
2022-08-30T06:18:41.122Z,17.42
2022-08-30T06:24:04.275Z,17.66
2022-08-30T06:29:25.289Z,18.02
2022-08-30T06:34:46.124Z,18.52
2022-08-30T06:40:07.512Z,18.72
2022-08-30T06:45:28.089Z,19.15
2022-08-30T06:50:54.097Z,19.47
2022-08-30T06:56:17.868Z,19.18
2022-08-30T07:01:39.188Z,19.09
2022-08-30T07:07:00.350Z,19.32
2022-08-30T07:12:21.572Z,19.62
2022-08-30T07:18:01.381Z,19.81
2022-08-30T07:23:21.930Z,19.80
2022-08-30T07:28:44.914Z,19.95
2022-08-30T07:34:07.549Z,20.00
2022-08-30T07:39:28.889Z,19.87
2022-08-30T07:44:56.508Z,19.56
2022-08-30T07:50:17.502Z,19.42
2022-08-30T07:55:38.912Z,19.41
2022-08-30T08:01:00.292Z,19.26
2022-08-30T08:06:23.740Z,19.22
2022-08-30T08:11:44.307Z,19.12
2022-08-30T08:17:05.193Z,19.18
2022-08-30T08:22:26.007Z,19.29
2022-08-30T08:27:49.092Z,19.43
2022-08-30T08:33:10.745Z,19.72
2022-08-30T08:38:32.096Z,19.84
2022-08-30T08:43:52.952Z,19.98
2022-08-30T08:49:13.707Z,20.04
2022-08-30T08:54:43.052Z,20.14
2022-08-30T09:00:10.271Z,20.22
2022-08-30T09:05:41.103Z,20.29
2022-08-30T09:11:13.514Z,20.37
2022-08-30T09:16:48.110Z,20.46
2022-08-30T09:22:35.753Z,20.54
2022-08-30T09:28:12.051Z,20.56
2022-08-30T09:33:33.694Z,20.65
2022-08-30T09:39:01.958Z,20.75
2022-08-30T09:44:28.010Z,20.72
2022-08-30T09:49:49.243Z,20.86
2022-08-30T09:55:32.149Z,21.02
2022-08-30T10:01:04.553Z,21.24
2022-08-30T10:06:34.072Z,21.17
2022-08-30T10:12:23.023Z,21.25
2022-08-30T10:18:04.660Z,21.21
2022-08-30T10:23:33.885Z,21.16
2022-08-30T10:29:02.344Z,21.06
2022-08-30T10:34:39.950Z,21.10
2022-08-30T10:40:28.344Z,21.16
2022-08-30T10:45:51.364Z,21.37
2022-08-30T10:51:26.821Z,21.27
2022-08-30T10:56:54.352Z,21.24
2022-08-30T11:02:30.753Z,21.39
2022-08-30T11:08:37.354Z,21.45
2022-08-30T11:14:05.444Z,21.38
2022-08-30T11:19:32.179Z,21.43
2022-08-30T11:25:09.675Z,21.39
2022-08-30T11:30:31.077Z,21.49
2022-08-30T11:35:53.740Z,21.62
2022-08-30T11:41:30.608Z,21.75
2022-08-30T11:46:59.931Z,21.94
2022-08-30T11:52:42.219Z,21.93
2022-08-30T11:58:11.579Z,21.83
2022-08-30T12:03:35.134Z,21.68
2022-08-30T12:09:02.715Z,21.64
2022-08-30T12:14:49.564Z,21.55
2022-08-30T12:20:22.962Z,21.51
2022-08-30T12:25:43.808Z,21.50
2022-08-30T12:31:11.613Z,21.45
2022-08-30T12:36:39.546Z,21.38
2022-08-30T12:42:19.093Z,21.41
2022-08-30T12:47:52.623Z,21.40
2022-08-30T12:53:14.392Z,21.28
2022-08-30T12:58:52.642Z,21.27
2022-08-30T13:04:21.393Z,21.34
2022-08-30T13:09:44.360Z,21.42
2022-08-30T13:15:19.877Z,21.55
2022-08-30T13:20:40.990Z,21.55
2022-08-30T13:26:01.984Z,21.52
2022-08-30T13:31:23.127Z,21.59
2022-08-30T13:36:48.293Z,21.61
2022-08-30T13:47:50.478Z,21.68
2022-08-30T13:53:11.572Z,21.69
2022-08-30T13:58:33.431Z,21.70
2022-08-30T14:09:35.423Z,21.80
2022-08-30T14:14:59.524Z,21.74
2022-08-30T14:20:20.985Z,21.71
2022-08-30T14:25:41.847Z,21.69
2022-08-30T14:31:02.631Z,21.79
2022-08-30T14:36:23.625Z,21.81
2022-08-30T14:41:52.106Z,21.71
2022-08-30T14:47:13.004Z,21.70
2022-08-30T14:52:34.183Z,21.64
2022-08-30T14:57:54.809Z,21.68
2022-08-30T15:03:15.709Z,21.69
2022-08-30T15:08:37.333Z,21.68
2022-08-30T15:13:58.285Z,21.74
2022-08-30T15:19:19.238Z,21.81
2022-08-30T15:24:40.959Z,21.79
2022-08-30T15:30:01.898Z,21.78
2022-08-30T15:35:22.874Z,21.74
2022-08-30T15:40:44.763Z,21.69
2022-08-30T15:46:30.088Z,21.67
2022-08-30T15:51:54.355Z,21.60
2022-08-30T15:57:15.873Z,21.52
2022-08-30T16:02:36.867Z,21.44
2022-08-30T16:07:59.773Z,21.37
2022-08-30T16:13:20.798Z,21.38
2022-08-30T16:18:41.959Z,21.41
2022-08-30T16:24:04.190Z,21.32
2022-08-30T16:29:25.456Z,21.30
2022-08-30T16:34:46.271Z,21.21
2022-08-30T16:40:07.682Z,21.17
2022-08-30T16:45:34.275Z,21.16
2022-08-30T16:50:56.771Z,21.15
2022-08-30T16:56:21.391Z,21.09
2022-08-30T17:07:24.821Z,20.94
2022-08-30T17:12:45.857Z,20.93
2022-08-30T17:18:07.165Z,20.77
2022-08-30T17:23:29.976Z,20.66
2022-08-30T17:28:50.918Z,20.55
2022-08-30T17:34:13.226Z,20.44
2022-08-30T17:39:34.843Z,20.38
2022-08-30T17:44:58.035Z,20.27
2022-08-30T17:50:22.159Z,20.15
2022-08-30T17:55:49.149Z,20.06
2022-08-30T18:01:13.455Z,20.01
2022-08-30T18:06:35.301Z,19.88
2022-08-30T18:11:56.365Z,19.79
2022-08-30T18:17:17.503Z,19.58
2022-08-30T18:22:38.170Z,19.49
2022-08-30T18:27:59.287Z,19.46
2022-08-30T18:33:20.028Z,19.36
2022-08-30T18:38:42.573Z,19.20
2022-08-30T18:44:26.327Z,19.17
2022-08-30T18:49:44.543Z,19.14
2022-08-30T18:55:05.968Z,19.07
2022-08-30T19:00:27.166Z,19.00
2022-08-30T19:05:47.869Z,18.98
2022-08-30T19:11:09.490Z,19.03
2022-08-30T19:16:30.262Z,19.10
2022-08-30T19:21:51.942Z,19.09
2022-08-30T19:27:12.842Z,18.98
2022-08-30T19:32:33.710Z,18.83
2022-08-30T19:37:54.813Z,18.71
2022-08-30T19:43:15.601Z,18.58
2022-08-30T19:48:43.166Z,18.50
2022-08-30T19:54:04.895Z,18.49
2022-08-30T19:59:29.302Z,18.45
2022-08-30T20:04:50.561Z,18.40
2022-08-30T20:10:13.909Z,18.41
2022-08-30T20:15:34.545Z,18.40
2022-08-30T20:20:57.044Z,18.31
2022-08-30T20:24:23.219Z,21.06
2022-08-30T20:26:18.122Z,18.27
2022-08-30T20:31:39.160Z,18.29
2022-08-30T20:37:00.073Z,18.32
2022-08-30T20:42:21.154Z,18.32
2022-08-30T20:47:43.230Z,18.35
2022-08-30T20:53:04.321Z,18.39
2022-08-30T20:58:25.259Z,18.44
2022-08-30T21:03:47.698Z,18.43
2022-08-30T21:09:09.098Z,18.43
2022-08-30T21:14:29.786Z,18.35
2022-08-30T21:19:54.463Z,18.39
2022-08-30T21:25:15.267Z,18.43
2022-08-30T21:30:36.797Z,18.46
2022-08-30T21:36:17.685Z,18.42
2022-08-30T21:41:39.415Z,18.26
2022-08-30T21:46:59.973Z,18.26
2022-08-30T21:52:20.767Z,18.24
2022-08-30T21:57:41.378Z,18.20
2022-08-30T22:03:02.402Z,18.17
2022-08-30T22:08:23.122Z,18.16
2022-08-30T22:13:46.239Z,18.01
2022-08-30T22:19:09.550Z,17.90
2022-08-30T22:24:32.868Z,17.85
2022-08-30T22:29:53.746Z,17.88
2022-08-30T22:35:14.406Z,17.89
2022-08-30T22:40:35.560Z,17.87
2022-08-30T22:45:57.985Z,17.83
2022-08-30T22:51:21.462Z,17.86
2022-08-30T22:56:42.299Z,17.85
2022-08-30T23:02:03.471Z,17.92
2022-08-30T23:07:24.839Z,17.94
2022-08-30T23:12:45.537Z,17.94
2022-08-30T23:18:06.597Z,17.93
2022-08-30T23:23:45.956Z,17.98
2022-08-30T23:29:25.860Z,17.92
2022-08-30T23:35:05.516Z,17.76
2022-08-30T23:40:45.318Z,17.75
2022-08-30T23:46:24.381Z,17.84
2022-08-30T23:52:03.408Z,17.89
2022-08-30T23:57:43.151Z,17.87
